sensor_id;sensor_type;location;lat;lon;timestamp;pressure;altitude;pressure_sealevel;temperature;humidity
55217;BME280;41086;46.736;15.666;2023-06-22T00:01:19;98774.53;;;22.75;100.00
55217;BME280;41086;46.736;15.666;2023-06-22T00:03:47;98779.09;;;22.75;100.00
55217;BME280;41086;46.736;15.666;2023-06-22T00:06:14;98778.56;;;22.79;100.00
55217;BME280;41086;46.736;15.666;2023-06-22T00:08:41;98786.16;;;22.76;100.00
55217;BME280;41086;46.736;15.666;2023-06-22T00:11:08;98778.22;;;22.74;100.00
55217;BME280;41086;46.736;15.666;2023-06-22T00:13:34;98786.66;;;22.79;100.00
55217;BME280;41086;46.736;15.666;2023-06-22T00:16:01;98782.25;;;22.87;100.00
55217;BME280;41086;46.736;15.666;2023-06-22T00:18:28;98779.84;;;22.92;100.00
55217;BME280;41086;46.736;15.666;2023-06-22T00:20:57;98781.09;;;22.81;100.00
55217;BME280;41086;46.736;15.666;2023-06-22T00:23:25;98776.75;;;22.72;100.00
55217;BME280;41086;46.736;15.666;2023-06-22T00:25:52;98773.56;;;22.60;100.00
55217;BME280;41086;46.736;15.666;2023-06-22T00:28:19;98778.69;;;22.47;100.00
55217;BME280;41086;46.736;15.666;2023-06-22T00:30:46;98780.75;;;22.37;100.00
55217;BME280;41086;46.736;15.666;2023-06-22T00:33:13;98777.72;;;22.40;100.00
55217;BME280;41086;46.736;15.666;2023-06-22T00:35:40;98775.16;;;22.38;100.00
55217;BME280;41086;46.736;15.666;2023-06-22T00:38:08;98779.38;;;22.41;100.00
55217;BME280;41086;46.736;15.666;2023-06-22T00:40:35;98775.50;;;22.43;100.00
55217;BME280;41086;46.736;15.666;2023-06-22T00:43:03;98775.34;;;22.45;100.00
55217;BME280;41086;46.736;15.666;2023-06-22T00:45:29;98776.88;;;22.31;100.00
55217;BME280;41086;46.736;15.666;2023-06-22T00:47:57;98779.41;;;22.16;100.00
55217;BME280;41086;46.736;15.666;2023-06-22T00:50:26;98769.50;;;22.00;100.00
55217;BME280;41086;46.736;15.666;2023-06-22T00:52:58;98768.66;;;22.00;100.00
55217;BME280;41086;46.736;15.666;2023-06-22T00:55:26;98765.63;;;22.03;100.00
55217;BME280;41086;46.736;15.666;2023-06-22T00:57:53;98765.81;;;22.01;100.00
55217;BME280;41086;46.736;15.666;2023-06-22T01:00:24;98765.63;;;22.03;100.00
55217;BME280;41086;46.736;15.666;2023-06-22T01:02:52;98761.72;;;22.13;100.00
55217;BME280;41086;46.736;15.666;2023-06-22T01:05:21;98763.94;;;22.18;100.00
55217;BME280;41086;46.736;15.666;2023-06-22T01:11:06;98768.31;;;22.19;100.00
55217;BME280;41086;46.736;15.666;2023-06-22T01:14:01;98762.22;;;22.09;100.00
55217;BME280;41086;46.736;15.666;2023-06-22T01:16:32;98760.22;;;21.95;100.00
55217;BME280;41086;46.736;15.666;2023-06-22T01:19:34;98761.41;;;21.92;100.00
55217;BME280;41086;46.736;15.666;2023-06-22T01:22:03;98759.56;;;21.92;100.00
55217;BME280;41086;46.736;15.666;2023-06-22T01:28:01;98769.97;;;22.12;100.00
55217;BME280;41086;46.736;15.666;2023-06-22T01:30:19;98765.44;;;22.21;100.00
55217;BME280;41086;46.736;15.666;2023-06-22T01:32:46;98767.59;;;22.17;100.00
55217;BME280;41086;46.736;15.666;2023-06-22T01:35:15;98757.16;;;22.14;100.00
55217;BME280;41086;46.736;15.666;2023-06-22T01:37:42;98777.09;;;22.21;100.00
55217;BME280;41086;46.736;15.666;2023-06-22T01:40:10;98771.31;;;22.16;100.00
55217;BME280;41086;46.736;15.666;2023-06-22T01:42:38;98774.38;;;22.13;100.00
55217;BME280;41086;46.736;15.666;2023-06-22T01:45:07;98786.84;;;22.06;100.00
55217;BME280;41086;46.736;15.666;2023-06-22T01:47:36;98778.28;;;22.02;100.00
55217;BME280;41086;46.736;15.666;2023-06-22T01:50:03;98768.66;;;21.91;100.00
55217;BME280;41086;46.736;15.666;2023-06-22T01:52:32;98774.91;;;21.92;100.00
55217;BME280;41086;46.736;15.666;2023-06-22T01:55:00;98779.13;;;21.78;100.00
55217;BME280;41086;46.736;15.666;2023-06-22T01:57:27;98782.19;;;21.59;100.00
55217;BME280;41086;46.736;15.666;2023-06-22T01:59:58;98780.47;;;21.50;100.00
55217;BME280;41086;46.736;15.666;2023-06-22T02:02:52;98775.41;;;21.38;100.00
55217;BME280;41086;46.736;15.666;2023-06-22T02:05:18;98775.91;;;21.34;100.00
55217;BME280;41086;46.736;15.666;2023-06-22T02:07:50;98771.16;;;21.36;100.00
55217;BME280;41086;46.736;15.666;2023-06-22T02:10:20;98774.88;;;21.35;100.00
55217;BME280;41086;46.736;15.666;2023-06-22T02:12:50;98781.31;;;21.42;100.00
55217;BME280;41086;46.736;15.666;2023-06-22T02:15:18;98775.06;;;21.50;100.00
55217;BME280;41086;46.736;15.666;2023-06-22T02:17:47;98767.84;;;21.50;100.00
55217;BME280;41086;46.736;15.666;2023-06-22T02:20:14;98766.16;;;21.57;100.00
55217;BME280;41086;46.736;15.666;2023-06-22T02:22:42;98758.19;;;21.31;100.00
55217;BME280;41086;46.736;15.666;2023-06-22T02:25:10;98766.28;;;21.31;100.00
55217;BME280;41086;46.736;15.666;2023-06-22T02:27:37;98773.41;;;21.40;100.00
55217;BME280;41086;46.736;15.666;2023-06-22T02:30:10;98776.78;;;21.42;100.00
55217;BME280;41086;46.736;15.666;2023-06-22T02:32:38;98771.69;;;21.31;100.00
55217;BME280;41086;46.736;15.666;2023-06-22T02:35:11;98773.91;;;21.44;100.00
55217;BME280;41086;46.736;15.666;2023-06-22T02:37:38;98774.91;;;21.43;100.00
55217;BME280;41086;46.736;15.666;2023-06-22T02:40:08;98777.41;;;21.36;100.00
55217;BME280;41086;46.736;15.666;2023-06-22T02:42:37;98776.78;;;21.42;100.00
55217;BME280;41086;46.736;15.666;2023-06-22T02:45:04;98783.50;;;21.46;100.00
55217;BME280;41086;46.736;15.666;2023-06-22T02:47:31;98782.16;;;21.42;100.00
55217;BME280;41086;46.736;15.666;2023-06-22T02:49:59;98786.00;;;21.32;100.00
55217;BME280;41086;46.736;15.666;2023-06-22T02:52:28;98794.19;;;21.14;100.00
55217;BME280;41086;46.736;15.666;2023-06-22T02:54:55;98793.38;;;21.13;100.00
55217;BME280;41086;46.736;15.666;2023-06-22T02:57:22;98806.66;;;20.98;100.00
55217;BME280;41086;46.736;15.666;2023-06-22T02:59:49;98793.28;;;20.80;100.00
55217;BME280;41086;46.736;15.666;2023-06-22T03:02:16;98787.84;;;20.72;100.00
55217;BME280;41086;46.736;15.666;2023-06-22T03:04:44;98787.00;;;20.72;100.00
55217;BME280;41086;46.736;15.666;2023-06-22T03:07:11;98792.22;;;20.73;100.00
55217;BME280;41086;46.736;15.666;2023-06-22T03:09:37;98776.72;;;20.67;100.00
55217;BME280;41086;46.736;15.666;2023-06-22T03:12:04;98774.00;;;20.59;100.00
55217;BME280;41086;46.736;15.666;2023-06-22T03:14:53;98784.81;;;20.67;100.00
55217;BME280;41086;46.736;15.666;2023-06-22T03:17:19;98789.50;;;20.65;100.00
55217;BME280;41086;46.736;15.666;2023-06-22T03:19:46;98786.94;;;20.55;100.00
55217;BME280;41086;46.736;15.666;2023-06-22T03:22:13;98792.63;;;20.52;100.00
55217;BME280;41086;46.736;15.666;2023-06-22T03:24:41;98787.94;;;20.54;100.00
55217;BME280;41086;46.736;15.666;2023-06-22T03:27:08;98785.97;;;20.65;100.00
55217;BME280;41086;46.736;15.666;2023-06-22T03:29:35;98790.03;;;20.69;100.00
55217;BME280;41086;46.736;15.666;2023-06-22T03:32:01;98792.88;;;20.67;100.00
55217;BME280;41086;46.736;15.666;2023-06-22T03:34:29;98790.03;;;20.69;100.00
55217;BME280;41086;46.736;15.666;2023-06-22T03:37:01;98792.53;;;20.62;100.00
55217;BME280;41086;46.736;15.666;2023-06-22T03:39:28;98785.38;;;20.53;100.00
55217;BME280;41086;46.736;15.666;2023-06-22T03:41:56;98786.97;;;20.64;100.00
55217;BME280;41086;46.736;15.666;2023-06-22T03:44:23;98800.31;;;20.73;100.00
55217;BME280;41086;46.736;15.666;2023-06-22T03:46:50;98798.31;;;20.84;100.00
55217;BME280;41086;46.736;15.666;2023-06-22T03:49:18;98803.22;;;20.88;100.00
55217;BME280;41086;46.736;15.666;2023-06-22T03:51:45;98811.31;;;20.88;100.00
55217;BME280;41086;46.736;15.666;2023-06-22T03:54:12;98809.97;;;20.92;100.00
55217;BME280;41086;46.736;15.666;2023-06-22T03:56:38;98804.78;;;20.99;100.00
55217;BME280;41086;46.736;15.666;2023-06-22T03:59:05;98803.94;;;20.98;100.00
55217;BME280;41086;46.736;15.666;2023-06-22T04:01:32;98799.38;;;20.91;100.00
55217;BME280;41086;46.736;15.666;2023-06-22T04:03:58;98798.53;;;20.90;100.00
55217;BME280;41086;46.736;15.666;2023-06-22T04:06:25;98790.94;;;20.86;100.00
55217;BME280;41086;46.736;15.666;2023-06-22T04:08:52;98784.50;;;20.78;100.00
55217;BME280;41086;46.736;15.666;2023-06-22T04:11:19;98797.47;;;20.75;100.00
55217;BME280;41086;46.736;15.666;2023-06-22T04:13:46;98797.13;;;20.78;100.00
55217;BME280;41086;46.736;15.666;2023-06-22T04:16:15;98783.84;;;20.76;100.00
55217;BME280;41086;46.736;15.666;2023-06-22T04:18:42;98794.91;;;20.73;100.00
55217;BME280;41086;46.736;15.666;2023-06-22T04:21:10;98788.69;;;20.73;100.00
55217;BME280;41086;46.736;15.666;2023-06-22T04:23:37;98786.03;;;20.81;100.00
55217;BME280;41086;46.736;15.666;2023-06-22T04:26:04;98784.88;;;20.92;100.00
55217;BME280;41086;46.736;15.666;2023-06-22T04:28:31;98781.03;;;21.02;100.00
55217;BME280;41086;46.736;15.666;2023-06-22T04:31:02;98785.28;;;21.13;100.00
55217;BME280;41086;46.736;15.666;2023-06-22T04:33:30;98791.00;;;21.10;100.00
55217;BME280;41086;46.736;15.666;2023-06-22T04:35:57;98789.00;;;21.12;100.00
55217;BME280;41086;46.736;15.666;2023-06-22T04:38:25;98793.34;;;21.05;100.00
55217;BME280;41086;46.736;15.666;2023-06-22T04:40:51;98793.22;;;21.15;100.00
55217;BME280;41086;46.736;15.666;2023-06-22T04:43:20;98797.59;;;21.16;100.00
55217;BME280;41086;46.736;15.666;2023-06-22T04:45:48;98805.66;;;21.08;100.00
55217;BME280;41086;46.736;15.666;2023-06-22T04:48:19;98800.09;;;21.09;100.00
55217;BME280;41086;46.736;15.666;2023-06-22T04:50:45;98801.13;;;21.16;100.00
55217;BME280;41086;46.736;15.666;2023-06-22T04:53:12;98786.31;;;21.20;100.00
55217;BME280;41086;46.736;15.666;2023-06-22T04:55:39;98790.34;;;21.24;100.00
55217;BME280;41086;46.736;15.666;2023-06-22T04:58:08;98789.53;;;21.32;100.00
55217;BME280;41086;46.736;15.666;2023-06-22T05:00:35;98782.47;;;21.31;100.00
55217;BME280;41086;46.736;15.666;2023-06-22T05:03:02;98783.31;;;21.32;100.00
55217;BME280;41086;46.736;15.666;2023-06-22T05:05:45;98786.84;;;21.32;100.00
55217;BME280;41086;46.736;15.666;2023-06-22T05:08:12;98788.53;;;21.41;100.00
55217;BME280;41086;46.736;15.666;2023-06-22T05:10:39;98793.44;;;21.54;100.00
55217;BME280;41086;46.736;15.666;2023-06-22T05:13:25;98790.25;;;21.67;100.00
55217;BME280;41086;46.736;15.666;2023-06-22T05:15:53;98792.97;;;21.75;100.00
55217;BME280;41086;46.736;15.666;2023-06-22T05:18:28;98791.09;;;21.84;100.00
55217;BME280;41086;46.736;15.666;2023-06-22T05:20:58;98792.13;;;21.91;100.00
55217;BME280;41086;46.736;15.666;2023-06-22T05:23:25;98795.66;;;21.83;100.00
55217;BME280;41086;46.736;15.666;2023-06-22T05:25:51;98791.59;;;21.87;100.00
55217;BME280;41086;46.736;15.666;2023-06-22T05:28:18;98788.75;;;21.89;100.00
55217;BME280;41086;46.736;15.666;2023-06-22T05:30:50;98784.84;;;21.91;100.00
55217;BME280;41086;46.736;15.666;2023-06-22T05:33:17;98786.38;;;22.02;100.00
55217;BME280;41086;46.736;15.666;2023-06-22T05:35:43;98802.69;;;22.17;100.00
55217;BME280;41086;46.736;15.666;2023-06-22T05:38:10;98793.75;;;22.17;100.00
55217;BME280;41086;46.736;15.666;2023-06-22T05:40:37;98791.06;;;22.17;100.00
55217;BME280;41086;46.736;15.666;2023-06-22T05:43:03;98790.22;;;22.32;100.00
55217;BME280;41086;46.736;15.666;2023-06-22T05:45:30;98790.88;;;22.43;100.00
55217;BME280;41086;46.736;15.666;2023-06-22T05:47:57;98788.50;;;22.48;100.00
55217;BME280;41086;46.736;15.666;2023-06-22T05:50:24;98780.84;;;22.60;100.00
55217;BME280;41086;46.736;15.666;2023-06-22T05:52:50;98791.78;;;22.66;100.00
55217;BME280;41086;46.736;15.666;2023-06-22T05:55:17;98782.47;;;22.69;100.00
55217;BME280;41086;46.736;15.666;2023-06-22T05:57:45;98787.38;;;22.73;100.00
55217;BME280;41086;46.736;15.666;2023-06-22T06:00:12;98786.00;;;22.77;100.00
55217;BME280;41086;46.736;15.666;2023-06-22T06:02:40;98787.16;;;22.83;100.00
55217;BME280;41086;46.736;15.666;2023-06-22T06:05:13;98787.44;;;23.05;100.00
55217;BME280;41086;46.736;15.666;2023-06-22T06:07:42;98787.28;;;23.29;100.00
55217;BME280;41086;46.736;15.666;2023-06-22T06:10:09;98785.72;;;23.35;100.00
55217;BME280;41086;46.736;15.666;2023-06-22T06:12:36;98785.00;;;23.41;100.00
55217;BME280;41086;46.736;15.666;2023-06-22T06:15:03;98784.47;;;23.45;100.00
55217;BME280;41086;46.736;15.666;2023-06-22T06:17:30;98783.78;;;23.43;100.00
55217;BME280;41086;46.736;15.666;2023-06-22T06:19:59;98786.47;;;23.66;100.00
55217;BME280;41086;46.736;15.666;2023-06-22T06:22:26;98790.16;;;23.74;100.00
55217;BME280;41086;46.736;15.666;2023-06-22T06:24:53;98791.31;;;23.56;100.00
55217;BME280;41086;46.736;15.666;2023-06-22T06:27:20;98784.78;;;23.88;100.00
55217;BME280;41086;46.736;15.666;2023-06-22T06:29:46;98783.03;;;23.96;100.00
55217;BME280;41086;46.736;15.666;2023-06-22T06:32:15;98779.28;;;23.82;100.00
55217;BME280;41086;46.736;15.666;2023-06-22T06:34:41;98778.47;;;23.96;100.00
55217;BME280;41086;46.736;15.666;2023-06-22T06:37:09;98781.44;;;23.86;100.00
55217;BME280;41086;46.736;15.666;2023-06-22T06:39:36;98778.66;;;23.95;100.00
55217;BME280;41086;46.736;15.666;2023-06-22T06:42:04;98786.03;;;24.16;100.00
55217;BME280;41086;46.736;15.666;2023-06-22T06:44:31;98781.59;;;24.23;100.00
55217;BME280;41086;46.736;15.666;2023-06-22T06:46:58;98780.94;;;24.36;100.00
55217;BME280;41086;46.736;15.666;2023-06-22T06:49:25;98774.34;;;24.53;100.00
55217;BME280;41086;46.736;15.666;2023-06-22T06:51:52;98780.03;;;24.73;100.00
55217;BME280;41086;46.736;15.666;2023-06-22T06:54:18;98778.06;;;24.82;100.00
55217;BME280;41086;46.736;15.666;2023-06-22T06:56:47;98773.63;;;24.95;100.00
55217;BME280;41086;46.736;15.666;2023-06-22T06:59:15;98779.13;;;25.02;100.00
55217;BME280;41086;46.736;15.666;2023-06-22T07:01:42;98774.41;;;25.26;100.00
55217;BME280;41086;46.736;15.666;2023-06-22T07:04:11;98771.47;;;25.42;100.00
55217;BME280;41086;46.736;15.666;2023-06-22T07:06:38;98765.78;;;25.37;100.00
55217;BME280;41086;46.736;15.666;2023-06-22T07:09:05;98767.31;;;25.68;100.00
55217;BME280;41086;46.736;15.666;2023-06-22T07:11:33;98766.97;;;25.77;100.00
55217;BME280;41086;46.736;15.666;2023-06-22T07:13:59;98773.97;;;25.86;100.00
55217;BME280;41086;46.736;15.666;2023-06-22T07:16:27;98772.44;;;26.05;100.00
55217;BME280;41086;46.736;15.666;2023-06-22T07:18:55;98772.94;;;25.88;100.00
55217;BME280;41086;46.736;15.666;2023-06-22T07:21:22;98772.50;;;26.12;100.00
55217;BME280;41086;46.736;15.666;2023-06-22T07:23:49;98768.66;;;26.28;100.00
55217;BME280;41086;46.736;15.666;2023-06-22T07:26:15;98764.88;;;26.29;100.00
55217;BME280;41086;46.736;15.666;2023-06-22T07:28:43;98775.19;;;26.75;100.00
55217;BME280;41086;46.736;15.666;2023-06-22T07:31:10;98780.34;;;26.57;100.00
55217;BME280;41086;46.736;15.666;2023-06-22T07:33:37;98763.06;;;26.36;100.00
55217;BME280;41086;46.736;15.666;2023-06-22T07:36:04;98766.78;;;26.63;100.00
55217;BME280;41086;46.736;15.666;2023-06-22T07:38:34;98761.06;;;27.00;100.00
55217;BME280;41086;46.736;15.666;2023-06-22T07:41:03;98759.59;;;26.97;100.00
55217;BME280;41086;46.736;15.666;2023-06-22T07:43:32;98761.31;;;27.11;100.00
55217;BME280;41086;46.736;15.666;2023-06-22T07:46:01;98764.38;;;27.63;100.00
55217;BME280;41086;46.736;15.666;2023-06-22T07:48:28;98745.94;;;27.65;100.00
55217;BME280;41086;46.736;15.666;2023-06-22T07:50:55;98758.75;;;28.04;99.80
55217;BME280;41086;46.736;15.666;2023-06-22T07:53:22;98758.97;;;27.90;99.89
55217;BME280;41086;46.736;15.666;2023-06-22T07:55:50;98757.91;;;27.77;100.00
55217;BME280;41086;46.736;15.666;2023-06-22T07:58:17;98757.94;;;27.91;98.62
55217;BME280;41086;46.736;15.666;2023-06-22T08:00:46;98760.81;;;28.22;92.53
55217;BME280;41086;46.736;15.666;2023-06-22T08:03:13;98760.84;;;28.09;91.36
55217;BME280;41086;46.736;15.666;2023-06-22T08:05:40;98764.41;;;28.03;94.08
55217;BME280;41086;46.736;15.666;2023-06-22T08:08:07;98755.97;;;28.51;93.62
55217;BME280;41086;46.736;15.666;2023-06-22T08:10:34;98753.16;;;28.78;87.49
55217;BME280;41086;46.736;15.666;2023-06-22T08:13:01;98749.22;;;29.12;85.55
55217;BME280;41086;46.736;15.666;2023-06-22T08:15:27;98748.09;;;29.58;84.96
55217;BME280;41086;46.736;15.666;2023-06-22T08:17:55;98755.44;;;29.64;81.79
55217;BME280;41086;46.736;15.666;2023-06-22T08:20:23;98751.31;;;29.80;83.11
55217;BME280;41086;46.736;15.666;2023-06-22T08:22:51;98745.88;;;29.48;82.93
55217;BME280;41086;46.736;15.666;2023-06-22T08:25:17;98757.22;;;29.13;87.13
55217;BME280;41086;46.736;15.666;2023-06-22T08:27:45;98746.28;;;29.13;91.31
55217;BME280;41086;46.736;15.666;2023-06-22T08:30:14;98748.81;;;29.47;87.06
55217;BME280;41086;46.736;15.666;2023-06-22T08:32:41;98745.16;;;29.59;82.23
55217;BME280;41086;46.736;15.666;2023-06-22T08:35:08;98751.59;;;29.97;87.25
55217;BME280;41086;46.736;15.666;2023-06-22T08:37:36;98753.41;;;30.28;86.87
55217;BME280;41086;46.736;15.666;2023-06-22T08:40:04;98750.25;;;30.50;82.99
55217;BME280;41086;46.736;15.666;2023-06-22T08:42:32;98740.50;;;30.72;78.93
55217;BME280;41086;46.736;15.666;2023-06-22T08:44:59;98737.25;;;31.00;77.47
55217;BME280;41086;46.736;15.666;2023-06-22T08:47:27;98737.38;;;31.35;73.69
55217;BME280;41086;46.736;15.666;2023-06-22T08:49:54;98729.63;;;31.74;76.49
55217;BME280;41086;46.736;15.666;2023-06-22T08:52:21;98733.44;;;31.73;71.61
55217;BME280;41086;46.736;15.666;2023-06-22T08:54:50;98734.75;;;31.71;70.40
55217;BME280;41086;46.736;15.666;2023-06-22T08:57:17;98732.09;;;31.22;72.00
55217;BME280;41086;46.736;15.666;2023-06-22T08:59:44;98729.03;;;30.63;81.33
55217;BME280;41086;46.736;15.666;2023-06-22T09:02:11;98729.22;;;31.17;80.90
55217;BME280;41086;46.736;15.666;2023-06-22T09:04:38;98736.53;;;31.05;85.51
55217;BME280;41086;46.736;15.666;2023-06-22T09:07:05;98728.56;;;31.33;83.31
55217;BME280;41086;46.736;15.666;2023-06-22T09:09:32;98722.09;;;31.70;81.85
55217;BME280;41086;46.736;15.666;2023-06-22T09:11:59;98719.63;;;31.80;72.19
55217;BME280;41086;46.736;15.666;2023-06-22T09:14:25;98716.78;;;32.10;75.82
55217;BME280;41086;46.736;15.666;2023-06-22T09:16:52;98718.59;;;31.93;76.24
55217;BME280;41086;46.736;15.666;2023-06-22T09:19:19;98721.41;;;31.86;72.51
55217;BME280;41086;46.736;15.666;2023-06-22T09:21:46;98719.44;;;31.09;80.53
55217;BME280;41086;46.736;15.666;2023-06-22T09:24:13;98717.22;;;31.60;77.01
55217;BME280;41086;46.736;15.666;2023-06-22T09:26:40;98714.16;;;32.15;75.66
55217;BME280;41086;46.736;15.666;2023-06-22T09:29:07;98712.50;;;32.50;74.05
55217;BME280;41086;46.736;15.666;2023-06-22T09:31:34;98723.34;;;32.09;73.92
55217;BME280;41086;46.736;15.666;2023-06-22T09:34:01;98710.91;;;32.42;73.80
55217;BME280;41086;46.736;15.666;2023-06-22T09:36:28;98718.22;;;32.88;75.62
55217;BME280;41086;46.736;15.666;2023-06-22T09:38:55;98712.84;;;33.22;70.54
55217;BME280;41086;46.736;15.666;2023-06-22T09:41:25;98721.53;;;33.31;67.06
55217;BME280;41086;46.736;15.666;2023-06-22T09:43:52;98704.56;;;33.51;70.76
55217;BME280;41086;46.736;15.666;2023-06-22T09:46:22;98713.25;;;33.60;70.28
55217;BME280;41086;46.736;15.666;2023-06-22T09:48:52;98705.69;;;33.67;67.41
55217;BME280;41086;46.736;15.666;2023-06-22T09:51:19;98702.25;;;33.60;71.42
55217;BME280;41086;46.736;15.666;2023-06-22T09:53:48;98692.69;;;33.62;68.09
55217;BME280;41086;46.736;15.666;2023-06-22T09:56:15;98699.06;;;34.02;69.37
55217;BME280;41086;46.736;15.666;2023-06-22T09:58:43;98698.94;;;34.30;62.72
55217;BME280;41086;46.736;15.666;2023-06-22T10:01:10;98690.31;;;34.43;59.53
55217;BME280;41086;46.736;15.666;2023-06-22T10:03:37;98689.22;;;34.61;56.98
55217;BME280;41086;46.736;15.666;2023-06-22T10:06:04;98704.16;;;34.49;56.72
55217;BME280;41086;46.736;15.666;2023-06-22T10:08:31;98697.50;;;34.45;58.64
55217;BME280;41086;46.736;15.666;2023-06-22T10:10:58;98691.25;;;34.71;58.53
55217;BME280;41086;46.736;15.666;2023-06-22T10:13:25;98682.81;;;34.78;61.54
55217;BME280;41086;46.736;15.666;2023-06-22T10:15:52;98687.63;;;34.49;58.75
55217;BME280;41086;46.736;15.666;2023-06-22T10:18:19;98679.28;;;34.60;60.37
55217;BME280;41086;46.736;15.666;2023-06-22T10:20:50;98681.34;;;34.70;57.39
55217;BME280;41086;46.736;15.666;2023-06-22T10:23:20;98683.03;;;34.76;56.77
55217;BME280;41086;46.736;15.666;2023-06-22T10:25:47;98683.59;;;35.00;53.26
55217;BME280;41086;46.736;15.666;2023-06-22T10:28:14;98686.31;;;35.22;50.83
55217;BME280;41086;46.736;15.666;2023-06-22T10:30:41;98679.69;;;35.18;53.15
55217;BME280;41086;46.736;15.666;2023-06-22T10:33:08;98683.63;;;35.05;52.91
55217;BME280;41086;46.736;15.666;2023-06-22T10:35:36;98687.53;;;35.37;56.25
55217;BME280;41086;46.736;15.666;2023-06-22T10:38:06;98692.44;;;35.29;53.54
55217;BME280;41086;46.736;15.666;2023-06-22T10:40:33;98686.19;;;35.39;51.06
55217;BME280;41086;46.736;15.666;2023-06-22T10:43:00;98683.31;;;35.56;52.19
55217;BME280;41086;46.736;15.666;2023-06-22T10:45:27;98687.84;;;35.67;51.75
55217;BME280;41086;46.736;15.666;2023-06-22T10:47:55;98684.28;;;35.72;50.07
55217;BME280;41086;46.736;15.666;2023-06-22T10:50:22;98687.88;;;36.10;54.20
55217;BME280;41086;46.736;15.666;2023-06-22T10:52:50;98687.22;;;35.98;54.88
55217;BME280;41086;46.736;15.666;2023-06-22T10:55:17;98679.00;;;36.03;57.66
55217;BME280;41086;46.736;15.666;2023-06-22T10:57:44;98676.34;;;36.23;57.44
55217;BME280;41086;46.736;15.666;2023-06-22T11:00:14;98667.75;;;36.09;53.96
55217;BME280;41086;46.736;15.666;2023-06-22T11:03:02;98667.13;;;36.02;54.64
55217;BME280;41086;46.736;15.666;2023-06-22T11:05:29;98663.97;;;36.26;49.25
55217;BME280;41086;46.736;15.666;2023-06-22T11:07:56;98669.13;;;36.59;49.12
55217;BME280;41086;46.736;15.666;2023-06-22T11:10:23;98664.16;;;36.56;51.24
55217;BME280;41086;46.736;15.666;2023-06-22T11:12:50;98659.91;;;36.44;47.59
55217;BME280;41086;46.736;15.666;2023-06-22T11:15:17;98663.38;;;36.24;46.82
55217;BME280;41086;46.736;15.666;2023-06-22T11:17:43;98665.75;;;36.52;51.03
55217;BME280;41086;46.736;15.666;2023-06-22T11:20:11;98660.88;;;36.65;49.42
55217;BME280;41086;46.736;15.666;2023-06-22T11:22:41;98660.59;;;36.71;46.30
55217;BME280;41086;46.736;15.666;2023-06-22T11:25:08;98663.91;;;36.73;46.35
55217;BME280;41086;46.736;15.666;2023-06-22T11:27:35;98659.63;;;36.40;45.61
55217;BME280;41086;46.736;15.666;2023-06-22T11:30:02;98651.13;;;36.52;45.02
55217;BME280;41086;46.736;15.666;2023-06-22T11:32:29;98652.41;;;36.34;44.90
55217;BME280;41086;46.736;15.666;2023-06-22T11:34:56;98657.34;;;35.84;46.61
55217;BME280;41086;46.736;15.666;2023-06-22T11:37:23;98657.88;;;36.19;46.80
55217;BME280;41086;46.736;15.666;2023-06-22T11:39:50;98648.00;;;36.33;45.50
55217;BME280;41086;46.736;15.666;2023-06-22T11:42:32;98648.75;;;36.76;47.52
55217;BME280;41086;46.736;15.666;2023-06-22T11:44:59;98637.88;;;36.49;45.21
55217;BME280;41086;46.736;15.666;2023-06-22T11:47:26;98639.66;;;36.96;46.20
55217;BME280;41086;46.736;15.666;2023-06-22T11:49:53;98639.91;;;36.94;46.24
55217;BME280;41086;46.736;15.666;2023-06-22T11:52:21;98633.63;;;37.04;43.22
55217;BME280;41086;46.736;15.666;2023-06-22T11:54:48;98629.66;;;36.69;42.53
55217;BME280;41086;46.736;15.666;2023-06-22T11:57:15;98626.94;;;36.85;44.07
55217;BME280;41086;46.736;15.666;2023-06-22T11:59:42;98626.75;;;37.27;45.02
55217;BME280;41086;46.736;15.666;2023-06-22T12:02:09;98625.38;;;37.19;43.44
55217;BME280;41086;46.736;15.666;2023-06-22T12:04:36;98625.63;;;37.18;43.10
55217;BME280;41086;46.736;15.666;2023-06-22T12:07:03;98621.13;;;36.91;41.44
55217;BME280;41086;46.736;15.666;2023-06-22T12:09:30;98618.72;;;37.25;42.34
55217;BME280;41086;46.736;15.666;2023-06-22T12:11:57;98620.09;;;37.23;40.74
55217;BME280;41086;46.736;15.666;2023-06-22T12:14:23;98622.84;;;36.97;41.58
55217;BME280;41086;46.736;15.666;2023-06-22T12:16:50;98615.13;;;37.15;42.12
55217;BME280;41086;46.736;15.666;2023-06-22T12:19:17;98609.63;;;37.30;41.63
55217;BME280;41086;46.736;15.666;2023-06-22T12:21:44;98612.91;;;37.37;41.44
55217;BME280;41086;46.736;15.666;2023-06-22T12:24:12;98606.53;;;37.67;41.95
55217;BME280;41086;46.736;15.666;2023-06-22T12:26:39;98614.28;;;37.30;42.11
55217;BME280;41086;46.736;15.666;2023-06-22T12:29:06;98605.75;;;37.46;41.30
55217;BME280;41086;46.736;15.666;2023-06-22T12:31:33;98600.16;;;37.82;41.41
55217;BME280;41086;46.736;15.666;2023-06-22T12:34:00;98605.69;;;37.98;41.15
55217;BME280;41086;46.736;15.666;2023-06-22T12:36:27;98593.69;;;38.28;41.21
55217;BME280;41086;46.736;15.666;2023-06-22T12:38:54;98589.38;;;37.96;42.78
55217;BME280;41086;46.736;15.666;2023-06-22T12:41:22;98578.91;;;37.47;41.63
55217;BME280;41086;46.736;15.666;2023-06-22T12:43:48;98578.13;;;37.52;41.09
55217;BME280;41086;46.736;15.666;2023-06-22T12:46:15;98578.59;;;37.84;42.40
55217;BME280;41086;46.736;15.666;2023-06-22T12:48:43;98585.75;;;38.06;41.43
55217;BME280;41086;46.736;15.666;2023-06-22T12:51:10;98586.25;;;38.18;39.87
55217;BME280;41086;46.736;15.666;2023-06-22T12:53:37;98582.66;;;38.18;40.52